Terminal Aerodrome Forecast
Issued by NWS Paducah, KY

Home | Current Version | Previous Version | Text Only | Print | Product List | Glossary On
Versions: 1 2 3 4 5 6 7 8 9 10 11 12 13 14 15 16 17 18 19 20 21 22 23 24 25 26 27 28 29 30 31 32 33 34 35 36 37 38 39 40
000
FTUS43 KPAH 200520
TAFPAH
TAF
KPAH 200520Z 2006/2106 23006KT P6SM VCSH BKN050 BKN090 OVC200
      TEMPO 2007/2011 6SM -TSRA BR SCT025 BKN045CB
     FM201400 28009KT P6SM BKN023=

USA.gov is the U.S. government's official web portal to all federal, state and local government web resources and services.